sensor_id;sensor_type;location;lat;lon;timestamp;P1;durP1;ratioP1;P2;durP2;ratioP2
63394;SDS011;49531;-34.520;150.798;2023-03-14T00:00:59;327.00;;;81.40;;
63394;SDS011;49531;-34.520;150.798;2023-03-14T00:03:33;323.23;;;80.32;;
63394;SDS011;49531;-34.520;150.798;2023-03-14T00:06:02;304.98;;;77.93;;
63394;SDS011;49531;-34.520;150.798;2023-03-14T00:08:30;324.70;;;80.97;;
63394;SDS011;49531;-34.520;150.798;2023-03-14T00:10:57;326.20;;;81.28;;
63394;SDS011;49531;-34.520;150.798;2023-03-14T00:13:29;300.02;;;77.43;;
63394;SDS011;49531;-34.520;150.798;2023-03-14T00:16:01;304.02;;;78.20;;
63394;SDS011;49531;-34.520;150.798;2023-03-14T00:18:29;318.60;;;79.97;;
63394;SDS011;49531;-34.520;150.798;2023-03-14T00:20:58;321.60;;;80.35;;
63394;SDS011;49531;-34.520;150.798;2023-03-14T00:23:29;320.05;;;80.03;;
63394;SDS011;49531;-34.520;150.798;2023-03-14T00:25:59;323.27;;;80.77;;
63394;SDS011;49531;-34.520;150.798;2023-03-14T00:28:27;312.58;;;79.38;;
63394;SDS011;49531;-34.520;150.798;2023-03-14T00:30:55;312.77;;;79.18;;
63394;SDS011;49531;-34.520;150.798;2023-03-14T00:33:22;307.75;;;78.15;;
63394;SDS011;49531;-34.520;150.798;2023-03-14T00:35:55;294.85;;;75.95;;
63394;SDS011;49531;-34.520;150.798;2023-03-14T00:38:24;300.92;;;77.07;;
63394;SDS011;49531;-34.520;150.798;2023-03-14T00:40:52;304.92;;;78.00;;
63394;SDS011;49531;-34.520;150.798;2023-03-14T00:43:18;302.08;;;77.80;;
63394;SDS011;49531;-34.520;150.798;2023-03-14T00:45:48;299.73;;;76.53;;
63394;SDS011;49531;-34.520;150.798;2023-03-14T00:48:16;291.25;;;76.07;;
63394;SDS011;49531;-34.520;150.798;2023-03-14T00:50:44;293.20;;;75.93;;
63394;SDS011;49531;-34.520;150.798;2023-03-14T00:53:11;309.17;;;78.45;;
63394;SDS011;49531;-34.520;150.798;2023-03-14T00:55:39;310.35;;;79.07;;
63394;SDS011;49531;-34.520;150.798;2023-03-14T00:58:08;323.27;;;79.70;;
63394;SDS011;49531;-34.520;150.798;2023-03-14T01:00:36;328.08;;;80.28;;
63394;SDS011;49531;-34.520;150.798;2023-03-14T01:03:03;381.77;;;88.22;;
63394;SDS011;49531;-34.520;150.798;2023-03-14T01:05:31;5.60;;;1.45;;
63394;SDS011;49531;-34.520;150.798;2023-03-14T01:07:59;3.13;;;1.33;;
63394;SDS011;49531;-34.520;150.798;2023-03-14T01:10:26;1.98;;;1.25;;
63394;SDS011;49531;-34.520;150.798;2023-03-14T01:12:53;1.92;;;1.30;;
63394;SDS011;49531;-34.520;150.798;2023-03-14T01:15:21;2.58;;;1.40;;
63394;SDS011;49531;-34.520;150.798;2023-03-14T01:17:48;5.70;;;1.15;;
63394;SDS011;49531;-34.520;150.798;2023-03-14T01:20:16;50.17;;;1.70;;
63394;SDS011;49531;-34.520;150.798;2023-03-14T01:22:44;2.30;;;1.30;;
63394;SDS011;49531;-34.520;150.798;2023-03-14T01:25:12;4.13;;;1.25;;
63394;SDS011;49531;-34.520;150.798;2023-03-14T01:29:40;3.97;;;1.20;;
63394;SDS011;49531;-34.520;150.798;2023-03-14T01:32:07;2.85;;;1.20;;
63394;SDS011;49531;-34.520;150.798;2023-03-14T01:48:47;2.45;;;0.70;;
63394;SDS011;49531;-34.520;150.798;2023-03-14T01:51:25;1.67;;;0.90;;
63394;SDS011;49531;-34.520;150.798;2023-03-14T01:53:59;2.05;;;0.80;;
63394;SDS011;49531;-34.520;150.798;2023-03-14T01:56:33;1.60;;;0.90;;
63394;SDS011;49531;-34.520;150.798;2023-03-14T01:59:03;4.13;;;0.90;;
63394;SDS011;49531;-34.520;150.798;2023-03-14T02:01:32;1.60;;;0.82;;
63394;SDS011;49531;-34.520;150.798;2023-03-14T02:04:01;1.10;;;0.80;;
63394;SDS011;49531;-34.520;150.798;2023-03-14T02:06:34;2.00;;;0.90;;
63394;SDS011;49531;-34.520;150.798;2023-03-14T02:09:11;1.35;;;0.80;;
63394;SDS011;49531;-34.520;150.798;2023-03-14T02:11:38;1.45;;;0.80;;
63394;SDS011;49531;-34.520;150.798;2023-03-14T02:14:05;2.97;;;0.82;;
63394;SDS011;49531;-34.520;150.798;2023-03-14T02:16:39;1.08;;;0.75;;
63394;SDS011;49531;-34.520;150.798;2023-03-14T02:19:06;1.23;;;0.80;;
63394;SDS011;49531;-34.520;150.798;2023-03-14T02:21:42;1.23;;;0.60;;
63394;SDS011;49531;-34.520;150.798;2023-03-14T02:24:32;2.03;;;0.70;;
63394;SDS011;49531;-34.520;150.798;2023-03-14T02:27:10;2.17;;;0.85;;
63394;SDS011;49531;-34.520;150.798;2023-03-14T02:29:44;1.55;;;0.70;;
63394;SDS011;49531;-34.520;150.798;2023-03-14T02:32:17;1.25;;;0.70;;
63394;SDS011;49531;-34.520;150.798;2023-03-14T02:34:46;1.38;;;0.60;;
63394;SDS011;49531;-34.520;150.798;2023-03-14T02:37:17;2.58;;;0.80;;
63394;SDS011;49531;-34.520;150.798;2023-03-14T02:39:47;1.13;;;0.70;;
63394;SDS011;49531;-34.520;150.798;2023-03-14T02:42:15;2.20;;;0.88;;
63394;SDS011;49531;-34.520;150.798;2023-03-14T02:44:51;1.52;;;0.77;;
63394;SDS011;49531;-34.520;150.798;2023-03-14T02:47:22;2.70;;;0.90;;
63394;SDS011;49531;-34.520;150.798;2023-03-14T02:49:59;4.45;;;1.00;;
63394;SDS011;49531;-34.520;150.798;2023-03-14T02:52:29;1.75;;;0.82;;
63394;SDS011;49531;-34.520;150.798;2023-03-14T02:54:57;2.30;;;1.00;;
63394;SDS011;49531;-34.520;150.798;2023-03-14T02:57:24;3.33;;;1.08;;
63394;SDS011;49531;-34.520;150.798;2023-03-14T02:59:51;2.63;;;1.10;;
63394;SDS011;49531;-34.520;150.798;2023-03-14T03:02:18;2.88;;;1.08;;
63394;SDS011;49531;-34.520;150.798;2023-03-14T03:04:45;3.20;;;1.10;;
63394;SDS011;49531;-34.520;150.798;2023-03-14T03:07:13;2.22;;;1.02;;
63394;SDS011;49531;-34.520;150.798;2023-03-14T03:09:40;6.43;;;1.70;;
63394;SDS011;49531;-34.520;150.798;2023-03-14T03:12:07;3.50;;;1.50;;
63394;SDS011;49531;-34.520;150.798;2023-03-14T03:14:34;5.13;;;1.73;;
63394;SDS011;49531;-34.520;150.798;2023-03-14T03:17:03;6.38;;;1.77;;
63394;SDS011;49531;-34.520;150.798;2023-03-14T03:19:31;6.10;;;2.00;;
63394;SDS011;49531;-34.520;150.798;2023-03-14T03:22:00;6.25;;;3.00;;
63394;SDS011;49531;-34.520;150.798;2023-03-14T03:24:27;6.80;;;2.90;;
63394;SDS011;49531;-34.520;150.798;2023-03-14T03:26:54;5.18;;;2.70;;
63394;SDS011;49531;-34.520;150.798;2023-03-14T03:29:21;5.38;;;2.88;;
63394;SDS011;49531;-34.520;150.798;2023-03-14T03:31:48;4.53;;;2.60;;
63394;SDS011;49531;-34.520;150.798;2023-03-14T03:34:15;3.80;;;2.50;;
63394;SDS011;49531;-34.520;150.798;2023-03-14T03:36:43;5.15;;;2.60;;
63394;SDS011;49531;-34.520;150.798;2023-03-14T03:39:10;4.55;;;2.70;;
63394;SDS011;49531;-34.520;150.798;2023-03-14T03:41:37;4.53;;;2.38;;
63394;SDS011;49531;-34.520;150.798;2023-03-14T03:44:04;6.00;;;2.30;;
63394;SDS011;49531;-34.520;150.798;2023-03-14T03:46:31;5.25;;;2.45;;
63394;SDS011;49531;-34.520;150.798;2023-03-14T03:48:59;4.88;;;2.58;;
63394;SDS011;49531;-34.520;150.798;2023-03-14T03:51:26;8.27;;;3.33;;
63394;SDS011;49531;-34.520;150.798;2023-03-14T03:53:54;9.05;;;3.70;;
63394;SDS011;49531;-34.520;150.798;2023-03-14T03:56:22;7.80;;;4.68;;
63394;SDS011;49531;-34.520;150.798;2023-03-14T03:58:49;10.45;;;5.97;;
63394;SDS011;49531;-34.520;150.798;2023-03-14T04:01:16;13.18;;;6.45;;
63394;SDS011;49531;-34.520;150.798;2023-03-14T04:03:43;12.52;;;6.38;;
63394;SDS011;49531;-34.520;150.798;2023-03-14T04:06:11;10.15;;;6.38;;
63394;SDS011;49531;-34.520;150.798;2023-03-14T04:08:40;12.60;;;7.00;;
63394;SDS011;49531;-34.520;150.798;2023-03-14T04:11:07;12.50;;;6.90;;
63394;SDS011;49531;-34.520;150.798;2023-03-14T04:13:34;12.60;;;6.10;;
63394;SDS011;49531;-34.520;150.798;2023-03-14T04:16:01;10.93;;;6.05;;
63394;SDS011;49531;-34.520;150.798;2023-03-14T04:18:28;9.35;;;5.30;;
63394;SDS011;49531;-34.520;150.798;2023-03-14T04:20:56;8.43;;;5.18;;
63394;SDS011;49531;-34.520;150.798;2023-03-14T04:23:24;8.43;;;4.93;;
63394;SDS011;49531;-34.520;150.798;2023-03-14T04:25:52;8.90;;;4.60;;
63394;SDS011;49531;-34.520;150.798;2023-03-14T04:28:19;9.00;;;4.45;;
63394;SDS011;49531;-34.520;150.798;2023-03-14T04:30:46;8.43;;;4.47;;
63394;SDS011;49531;-34.520;150.798;2023-03-14T04:33:13;7.43;;;4.40;;
63394;SDS011;49531;-34.520;150.798;2023-03-14T04:35:43;7.65;;;4.20;;
63394;SDS011;49531;-34.520;150.798;2023-03-14T04:38:11;7.85;;;4.07;;
63394;SDS011;49531;-34.520;150.798;2023-03-14T04:40:39;5.72;;;3.92;;
63394;SDS011;49531;-34.520;150.798;2023-03-14T04:43:07;6.55;;;3.80;;
63394;SDS011;49531;-34.520;150.798;2023-03-14T04:45:36;5.55;;;3.58;;
63394;SDS011;49531;-34.520;150.798;2023-03-14T04:48:03;5.88;;;3.50;;
63394;SDS011;49531;-34.520;150.798;2023-03-14T04:50:30;6.80;;;3.35;;
63394;SDS011;49531;-34.520;150.798;2023-03-14T04:52:57;5.45;;;3.13;;
63394;SDS011;49531;-34.520;150.798;2023-03-14T04:55:25;4.95;;;3.00;;
63394;SDS011;49531;-34.520;150.798;2023-03-14T04:57:52;5.03;;;3.20;;
63394;SDS011;49531;-34.520;150.798;2023-03-14T05:00:19;5.88;;;2.90;;
63394;SDS011;49531;-34.520;150.798;2023-03-14T05:02:46;5.28;;;3.10;;
63394;SDS011;49531;-34.520;150.798;2023-03-14T05:05:13;5.88;;;2.85;;
63394;SDS011;49531;-34.520;150.798;2023-03-14T05:07:40;4.03;;;2.75;;
63394;SDS011;49531;-34.520;150.798;2023-03-14T05:10:08;4.63;;;2.90;;
63394;SDS011;49531;-34.520;150.798;2023-03-14T05:12:36;4.43;;;2.50;;
63394;SDS011;49531;-34.520;150.798;2023-03-14T05:15:03;4.45;;;3.00;;
63394;SDS011;49531;-34.520;150.798;2023-03-14T05:17:32;5.30;;;2.70;;
63394;SDS011;49531;-34.520;150.798;2023-03-14T05:19:59;4.97;;;2.70;;
63394;SDS011;49531;-34.520;150.798;2023-03-14T05:22:27;5.10;;;2.72;;
63394;SDS011;49531;-34.520;150.798;2023-03-14T05:24:54;5.20;;;2.60;;
63394;SDS011;49531;-34.520;150.798;2023-03-14T05:27:24;4.35;;;2.53;;
63394;SDS011;49531;-34.520;150.798;2023-03-14T05:29:51;4.85;;;2.60;;
63394;SDS011;49531;-34.520;150.798;2023-03-14T05:32:18;5.65;;;2.47;;
63394;SDS011;49531;-34.520;150.798;2023-03-14T05:34:45;3.83;;;2.13;;
63394;SDS011;49531;-34.520;150.798;2023-03-14T05:37:12;4.25;;;2.17;;
63394;SDS011;49531;-34.520;150.798;2023-03-14T05:39:39;6.70;;;2.50;;
63394;SDS011;49531;-34.520;150.798;2023-03-14T05:42:06;4.90;;;2.30;;
63394;SDS011;49531;-34.520;150.798;2023-03-14T05:44:33;7.32;;;2.35;;
63394;SDS011;49531;-34.520;150.798;2023-03-14T05:47:00;4.05;;;2.13;;
63394;SDS011;49531;-34.520;150.798;2023-03-14T05:49:27;4.32;;;2.15;;
63394;SDS011;49531;-34.520;150.798;2023-03-14T05:51:54;6.32;;;2.10;;
63394;SDS011;49531;-34.520;150.798;2023-03-14T05:54:21;4.88;;;2.20;;
63394;SDS011;49531;-34.520;150.798;2023-03-14T05:56:48;4.13;;;1.80;;
63394;SDS011;49531;-34.520;150.798;2023-03-14T05:59:15;4.18;;;2.00;;
63394;SDS011;49531;-34.520;150.798;2023-03-14T06:01:42;5.68;;;2.22;;
63394;SDS011;49531;-34.520;150.798;2023-03-14T06:04:10;4.43;;;1.85;;
63394;SDS011;49531;-34.520;150.798;2023-03-14T06:06:37;4.85;;;1.75;;
63394;SDS011;49531;-34.520;150.798;2023-03-14T06:09:04;6.30;;;1.90;;
63394;SDS011;49531;-34.520;150.798;2023-03-14T06:11:31;5.63;;;1.98;;
63394;SDS011;49531;-34.520;150.798;2023-03-14T06:13:58;4.40;;;1.80;;
63394;SDS011;49531;-34.520;150.798;2023-03-14T06:16:25;4.05;;;1.73;;
63394;SDS011;49531;-34.520;150.798;2023-03-14T06:18:52;4.57;;;1.75;;
63394;SDS011;49531;-34.520;150.798;2023-03-14T06:21:19;4.35;;;1.90;;
63394;SDS011;49531;-34.520;150.798;2023-03-14T06:23:46;3.70;;;1.80;;
63394;SDS011;49531;-34.520;150.798;2023-03-14T06:26:14;3.70;;;1.70;;
63394;SDS011;49531;-34.520;150.798;2023-03-14T06:28:41;2.85;;;1.60;;
63394;SDS011;49531;-34.520;150.798;2023-03-14T06:31:08;4.63;;;1.85;;
63394;SDS011;49531;-34.520;150.798;2023-03-14T06:33:35;4.40;;;1.70;;
63394;SDS011;49531;-34.520;150.798;2023-03-14T06:36:02;3.92;;;1.52;;
63394;SDS011;49531;-34.520;150.798;2023-03-14T06:38:30;3.60;;;1.80;;
63394;SDS011;49531;-34.520;150.798;2023-03-14T06:41:02;5.53;;;1.65;;
63394;SDS011;49531;-34.520;150.798;2023-03-14T06:43:31;2.67;;;1.42;;
63394;SDS011;49531;-34.520;150.798;2023-03-14T06:45:58;4.78;;;1.73;;
63394;SDS011;49531;-34.520;150.798;2023-03-14T06:48:25;2.83;;;1.50;;
63394;SDS011;49531;-34.520;150.798;2023-03-14T06:50:52;3.78;;;1.80;;
63394;SDS011;49531;-34.520;150.798;2023-03-14T06:53:19;4.07;;;1.50;;
63394;SDS011;49531;-34.520;150.798;2023-03-14T06:55:46;3.42;;;1.33;;
63394;SDS011;49531;-34.520;150.798;2023-03-14T06:58:14;4.25;;;1.60;;
63394;SDS011;49531;-34.520;150.798;2023-03-14T07:00:41;4.78;;;1.58;;
63394;SDS011;49531;-34.520;150.798;2023-03-14T07:03:08;2.83;;;1.40;;
63394;SDS011;49531;-34.520;150.798;2023-03-14T07:05:36;4.07;;;1.80;;
63394;SDS011;49531;-34.520;150.798;2023-03-14T07:08:06;3.92;;;1.70;;
63394;SDS011;49531;-34.520;150.798;2023-03-14T07:10:34;4.00;;;1.60;;
63394;SDS011;49531;-34.520;150.798;2023-03-14T07:13:02;4.53;;;1.80;;
63394;SDS011;49531;-34.520;150.798;2023-03-14T07:15:29;3.15;;;1.60;;
63394;SDS011;49531;-34.520;150.798;2023-03-14T07:17:56;5.97;;;1.60;;
63394;SDS011;49531;-34.520;150.798;2023-03-14T07:20:23;2.33;;;1.40;;
63394;SDS011;49531;-34.520;150.798;2023-03-14T07:22:50;3.70;;;1.67;;
63394;SDS011;49531;-34.520;150.798;2023-03-14T07:25:17;3.53;;;1.58;;
63394;SDS011;49531;-34.520;150.798;2023-03-14T07:27:45;3.17;;;1.65;;
63394;SDS011;49531;-34.520;150.798;2023-03-14T07:30:13;6.70;;;1.70;;
63394;SDS011;49531;-34.520;150.798;2023-03-14T07:32:40;4.57;;;1.55;;
63394;SDS011;49531;-34.520;150.798;2023-03-14T07:35:07;3.45;;;1.70;;
63394;SDS011;49531;-34.520;150.798;2023-03-14T07:37:34;4.68;;;1.70;;
63394;SDS011;49531;-34.520;150.798;2023-03-14T07:40:01;3.78;;;1.55;;
63394;SDS011;49531;-34.520;150.798;2023-03-14T07:42:32;4.60;;;1.85;;
63394;SDS011;49531;-34.520;150.798;2023-03-14T07:44:59;4.03;;;1.60;;
63394;SDS011;49531;-34.520;150.798;2023-03-14T07:47:26;4.53;;;1.35;;
63394;SDS011;49531;-34.520;150.798;2023-03-14T07:49:53;4.38;;;1.40;;
63394;SDS011;49531;-34.520;150.798;2023-03-14T07:52:20;5.68;;;1.60;;
63394;SDS011;49531;-34.520;150.798;2023-03-14T07:54:49;5.13;;;1.50;;
63394;SDS011;49531;-34.520;150.798;2023-03-14T07:57:16;3.78;;;1.40;;
63394;SDS011;49531;-34.520;150.798;2023-03-14T07:59:43;3.63;;;1.40;;
63394;SDS011;49531;-34.520;150.798;2023-03-14T08:02:10;3.67;;;1.42;;
63394;SDS011;49531;-34.520;150.798;2023-03-14T08:04:39;4.10;;;1.50;;
63394;SDS011;49531;-34.520;150.798;2023-03-14T08:07:06;3.95;;;1.50;;
63394;SDS011;49531;-34.520;150.798;2023-03-14T08:09:33;3.35;;;1.40;;
63394;SDS011;49531;-34.520;150.798;2023-03-14T08:12:00;5.82;;;1.50;;
63394;SDS011;49531;-34.520;150.798;2023-03-14T08:14:28;3.53;;;1.40;;
63394;SDS011;49531;-34.520;150.798;2023-03-14T08:16:56;4.45;;;1.50;;
63394;SDS011;49531;-34.520;150.798;2023-03-14T08:19:23;5.13;;;1.60;;
63394;SDS011;49531;-34.520;150.798;2023-03-14T08:21:50;4.40;;;1.65;;
63394;SDS011;49531;-34.520;150.798;2023-03-14T08:24:17;4.55;;;1.50;;
63394;SDS011;49531;-34.520;150.798;2023-03-14T08:26:44;6.00;;;1.83;;
63394;SDS011;49531;-34.520;150.798;2023-03-14T08:29:12;5.97;;;2.05;;
63394;SDS011;49531;-34.520;150.798;2023-03-14T08:31:39;6.63;;;2.00;;
63394;SDS011;49531;-34.520;150.798;2023-03-14T08:34:06;6.88;;;2.10;;
63394;SDS011;49531;-34.520;150.798;2023-03-14T08:36:34;9.52;;;2.22;;
63394;SDS011;49531;-34.520;150.798;2023-03-14T08:39:01;5.97;;;2.05;;
63394;SDS011;49531;-34.520;150.798;2023-03-14T08:41:29;6.72;;;1.98;;
63394;SDS011;49531;-34.520;150.798;2023-03-14T08:43:56;3.95;;;1.55;;
63394;SDS011;49531;-34.520;150.798;2023-03-14T08:46:23;4.20;;;1.63;;
63394;SDS011;49531;-34.520;150.798;2023-03-14T08:48:50;3.67;;;1.70;;
63394;SDS011;49531;-34.520;150.798;2023-03-14T08:51:17;5.70;;;1.95;;
63394;SDS011;49531;-34.520;150.798;2023-03-14T08:53:44;4.03;;;1.90;;
63394;SDS011;49531;-34.520;150.798;2023-03-14T08:56:11;4.32;;;1.98;;
63394;SDS011;49531;-34.520;150.798;2023-03-14T08:58:38;4.85;;;1.83;;
63394;SDS011;49531;-34.520;150.798;2023-03-14T09:01:07;3.65;;;1.75;;
63394;SDS011;49531;-34.520;150.798;2023-03-14T09:03:36;3.95;;;1.60;;
63394;SDS011;49531;-34.520;150.798;2023-03-14T09:06:04;4.63;;;1.80;;
63394;SDS011;49531;-34.520;150.798;2023-03-14T09:08:33;4.20;;;1.85;;
63394;SDS011;49531;-34.520;150.798;2023-03-14T09:11:01;3.42;;;1.80;;
63394;SDS011;49531;-34.520;150.798;2023-03-14T09:13:28;3.70;;;1.60;;
63394;SDS011;49531;-34.520;150.798;2023-03-14T09:15:56;3.78;;;1.75;;
63394;SDS011;49531;-34.520;150.798;2023-03-14T09:18:23;2.90;;;1.55;;
63394;SDS011;49531;-34.520;150.798;2023-03-14T09:20:50;5.70;;;1.70;;
63394;SDS011;49531;-34.520;150.798;2023-03-14T09:23:17;3.35;;;1.58;;
63394;SDS011;49531;-34.520;150.798;2023-03-14T09:25:44;4.03;;;1.80;;
63394;SDS011;49531;-34.520;150.798;2023-03-14T09:28:11;5.03;;;1.80;;
63394;SDS011;49531;-34.520;150.798;2023-03-14T09:30:39;2.92;;;1.50;;
63394;SDS011;49531;-34.520;150.798;2023-03-14T09:33:06;3.30;;;1.50;;
63394;SDS011;49531;-34.520;150.798;2023-03-14T09:35:34;3.70;;;1.80;;
63394;SDS011;49531;-34.520;150.798;2023-03-14T09:38:01;2.47;;;1.48;;
63394;SDS011;49531;-34.520;150.798;2023-03-14T09:40:31;3.42;;;1.60;;
63394;SDS011;49531;-34.520;150.798;2023-03-14T09:43:01;4.95;;;1.58;;
63394;SDS011;49531;-34.520;150.798;2023-03-14T09:45:34;2.00;;;1.30;;
63394;SDS011;49531;-34.520;150.798;2023-03-14T09:48:08;3.13;;;1.50;;
63394;SDS011;49531;-34.520;150.798;2023-03-14T09:50:44;3.95;;;1.70;;
63394;SDS011;49531;-34.520;150.798;2023-03-14T09:53:17;4.32;;;1.70;;
63394;SDS011;49531;-34.520;150.798;2023-03-14T09:55:47;3.78;;;1.98;;
63394;SDS011;49531;-34.520;150.798;2023-03-14T09:58:17;4.45;;;1.65;;
63394;SDS011;49531;-34.520;150.798;2023-03-14T10:00:49;3.90;;;1.60;;
63394;SDS011;49531;-34.520;150.798;2023-03-14T10:03:21;3.60;;;1.60;;
63394;SDS011;49531;-34.520;150.798;2023-03-14T10:05:55;3.50;;;1.60;;
63394;SDS011;49531;-34.520;150.798;2023-03-14T10:08:22;2.63;;;1.70;;
63394;SDS011;49531;-34.520;150.798;2023-03-14T10:10:49;4.65;;;1.55;;
63394;SDS011;49531;-34.520;150.798;2023-03-14T10:13:20;2.83;;;1.50;;
63394;SDS011;49531;-34.520;150.798;2023-03-14T10:15:52;4.45;;;1.80;;
63394;SDS011;49531;-34.520;150.798;2023-03-14T10:18:22;2.67;;;1.48;;
63394;SDS011;49531;-34.520;150.798;2023-03-14T10:21:00;2.83;;;1.45;;
63394;SDS011;49531;-34.520;150.798;2023-03-14T10:23:31;3.55;;;1.60;;
63394;SDS011;49531;-34.520;150.798;2023-03-14T10:26:03;3.58;;;1.55;;
63394;SDS011;49531;-34.520;150.798;2023-03-14T10:28:37;4.28;;;1.60;;
63394;SDS011;49531;-34.520;150.798;2023-03-14T10:31:06;2.55;;;1.45;;
63394;SDS011;49531;-34.520;150.798;2023-03-14T10:33:35;3.63;;;1.50;;
63394;SDS011;49531;-34.520;150.798;2023-03-14T10:36:04;2.28;;;1.50;;
63394;SDS011;49531;-34.520;150.798;2023-03-14T10:38:56;2.53;;;1.50;;
63394;SDS011;49531;-34.520;150.798;2023-03-14T10:41:46;4.30;;;1.70;;
63394;SDS011;49531;-34.520;150.798;2023-03-14T10:44:16;3.78;;;1.52;;
63394;SDS011;49531;-34.520;150.798;2023-03-14T10:46:53;2.88;;;1.52;;
63394;SDS011;49531;-34.520;150.798;2023-03-14T10:49:27;5.32;;;1.50;;
63394;SDS011;49531;-34.520;150.798;2023-03-14T10:52:12;2.78;;;1.40;;
63394;SDS011;49531;-34.520;150.798;2023-03-14T10:54:49;3.15;;;1.50;;
63394;SDS011;49531;-34.520;150.798;2023-03-14T10:57:22;4.00;;;1.70;;
63394;SDS011;49531;-34.520;150.798;2023-03-14T10:59:50;2.78;;;1.65;;
63394;SDS011;49531;-34.520;150.798;2023-03-14T11:02:31;3.60;;;1.42;;
63394;SDS011;49531;-34.520;150.798;2023-03-14T11:05:21;2.83;;;1.55;;
63394;SDS011;49531;-34.520;150.798;2023-03-14T11:08:09;3.50;;;1.45;;
63394;SDS011;49531;-34.520;150.798;2023-03-14T11:10:46;4.78;;;1.60;;
63394;SDS011;49531;-34.520;150.798;2023-03-14T11:13:27;5.13;;;1.52;;
63394;SDS011;49531;-34.520;150.798;2023-03-14T11:16:09;3.75;;;1.40;;
63394;SDS011;49531;-34.520;150.798;2023-03-14T11:19:00;3.60;;;1.50;;
63394;SDS011;49531;-34.520;150.798;2023-03-14T11:21:46;2.08;;;1.20;;
63394;SDS011;49531;-34.520;150.798;2023-03-14T11:24:34;5.10;;;1.73;;
63394;SDS011;49531;-34.520;150.798;2023-03-14T11:27:30;2.75;;;1.42;;
63394;SDS011;49531;-34.520;150.798;2023-03-14T11:30:15;4.22;;;1.50;;
63394;SDS011;49531;-34.520;150.798;2023-03-14T11:32:50;2.03;;;1.25;;
63394;SDS011;49531;-34.520;150.798;2023-03-14T11:35:28;2.80;;;1.63;;
63394;SDS011;49531;-34.520;150.798;2023-03-14T11:38:10;3.97;;;1.50;;
63394;SDS011;49531;-34.520;150.798;2023-03-14T11:40:50;2.78;;;1.30;;
63394;SDS011;49531;-34.520;150.798;2023-03-14T11:43:23;2.30;;;1.35;;
63394;SDS011;49531;-34.520;150.798;2023-03-14T11:45:56;4.80;;;1.60;;
63394;SDS011;49531;-34.520;150.798;2023-03-14T11:48:35;2.30;;;1.45;;
63394;SDS011;49531;-34.520;150.798;2023-03-14T11:51:13;3.35;;;1.50;;
63394;SDS011;49531;-34.520;150.798;2023-03-14T11:53:53;2.70;;;1.50;;
63394;SDS011;49531;-34.520;150.798;2023-03-14T11:56:33;3.72;;;1.40;;
63394;SDS011;49531;-34.520;150.798;2023-03-14T11:59:09;2.83;;;1.60;;
63394;SDS011;49531;-34.520;150.798;2023-03-14T12:01:49;4.68;;;1.48;;
63394;SDS011;49531;-34.520;150.798;2023-03-14T12:07:13;3.72;;;1.50;;
63394;SDS011;49531;-34.520;150.798;2023-03-14T12:09:45;2.72;;;1.38;;
63394;SDS011;49531;-34.520;150.798;2023-03-14T12:12:16;2.70;;;1.20;;
63394;SDS011;49531;-34.520;150.798;2023-03-14T12:14:57;3.75;;;1.50;;
63394;SDS011;49531;-34.520;150.798;2023-03-14T12:17:34;2.45;;;1.30;;
63394;SDS011;49531;-34.520;150.798;2023-03-14T12:20:24;4.32;;;1.67;;
63394;SDS011;49531;-34.520;150.798;2023-03-14T12:22:54;3.40;;;1.50;;
63394;SDS011;49531;-34.520;150.798;2023-03-14T12:25:30;1.95;;;1.40;;
63394;SDS011;49531;-34.520;150.798;2023-03-14T12:28:03;3.78;;;1.60;;
63394;SDS011;49531;-34.520;150.798;2023-03-14T12:30:42;3.25;;;1.50;;
63394;SDS011;49531;-34.520;150.798;2023-03-14T12:33:11;2.63;;;1.50;;
63394;SDS011;49531;-34.520;150.798;2023-03-14T12:35:47;2.58;;;1.50;;
63394;SDS011;49531;-34.520;150.798;2023-03-14T12:41:19;3.13;;;1.70;;
63394;SDS011;49531;-34.520;150.798;2023-03-14T12:44:22;3.08;;;1.60;;
63394;SDS011;49531;-34.520;150.798;2023-03-14T12:50:08;5.68;;;1.92;;
63394;SDS011;49531;-34.520;150.798;2023-03-14T12:52:50;3.83;;;1.70;;
63394;SDS011;49531;-34.520;150.798;2023-03-14T12:55:36;4.10;;;1.75;;
63394;SDS011;49531;-34.520;150.798;2023-03-14T12:58:17;2.63;;;1.60;;
63394;SDS011;49531;-34.520;150.798;2023-03-14T13:00:58;3.20;;;1.70;;
63394;SDS011;49531;-34.520;150.798;2023-03-14T13:06:12;3.67;;;1.80;;
63394;SDS011;49531;-34.520;150.798;2023-03-14T13:08:59;4.85;;;1.70;;
63394;SDS011;49531;-34.520;150.798;2023-03-14T13:12:02;2.92;;;1.60;;
63394;SDS011;49531;-34.520;150.798;2023-03-14T13:14:36;3.72;;;1.88;;
63394;SDS011;49531;-34.520;150.798;2023-03-14T13:17:10;4.25;;;1.83;;
63394;SDS011;49531;-34.520;150.798;2023-03-14T13:19:38;2.42;;;1.60;;
63394;SDS011;49531;-34.520;150.798;2023-03-14T13:22:14;1.92;;;1.38;;
63394;SDS011;49531;-34.520;150.798;2023-03-14T13:24:47;4.00;;;1.83;;
63394;SDS011;49531;-34.520;150.798;2023-03-14T13:27:17;3.17;;;1.80;;
63394;SDS011;49531;-34.520;150.798;2023-03-14T13:29:48;3.75;;;1.77;;
63394;SDS011;49531;-34.520;150.798;2023-03-14T13:32:17;2.95;;;1.70;;
63394;SDS011;49531;-34.520;150.798;2023-03-14T13:34:47;3.13;;;1.77;;
63394;SDS011;49531;-34.520;150.798;2023-03-14T13:37:16;2.45;;;1.55;;
63394;SDS011;49531;-34.520;150.798;2023-03-14T13:39:50;3.33;;;1.98;;
63394;SDS011;49531;-34.520;150.798;2023-03-14T13:42:21;2.50;;;1.80;;
63394;SDS011;49531;-34.520;150.798;2023-03-14T13:44:53;3.78;;;1.80;;
63394;SDS011;49531;-34.520;150.798;2023-03-14T13:47:23;2.63;;;1.75;;
63394;SDS011;49531;-34.520;150.798;2023-03-14T13:49:52;5.00;;;2.00;;
63394;SDS011;49531;-34.520;150.798;2023-03-14T13:52:22;3.83;;;1.80;;
63394;SDS011;49531;-34.520;150.798;2023-03-14T13:54:56;4.20;;;1.75;;
63394;SDS011;49531;-34.520;150.798;2023-03-14T13:57:25;4.15;;;1.95;;
63394;SDS011;49531;-34.520;150.798;2023-03-14T13:59:59;4.25;;;1.48;;
63394;SDS011;49531;-34.520;150.798;2023-03-14T14:02:36;3.05;;;1.90;;
63394;SDS011;49531;-34.520;150.798;2023-03-14T14:05:05;2.42;;;1.70;;
63394;SDS011;49531;-34.520;150.798;2023-03-14T14:07:32;4.25;;;1.80;;
63394;SDS011;49531;-34.520;150.798;2023-03-14T14:09:59;2.85;;;1.80;;
63394;SDS011;49531;-34.520;150.798;2023-03-14T14:12:30;2.88;;;1.83;;
63394;SDS011;49531;-34.520;150.798;2023-03-14T14:15:04;3.22;;;1.80;;
63394;SDS011;49531;-34.520;150.798;2023-03-14T14:17:39;2.70;;;1.80;;
63394;SDS011;49531;-34.520;150.798;2023-03-14T14:20:16;5.03;;;1.80;;
63394;SDS011;49531;-34.520;150.798;2023-03-14T14:22:49;4.35;;;1.80;;
63394;SDS011;49531;-34.520;150.798;2023-03-14T14:25:17;3.67;;;1.90;;
63394;SDS011;49531;-34.520;150.798;2023-03-14T14:27:47;3.83;;;1.92;;
63394;SDS011;49531;-34.520;150.798;2023-03-14T14:30:29;3.95;;;1.90;;
63394;SDS011;49531;-34.520;150.798;2023-03-14T14:35:49;2.85;;;1.75;;
63394;SDS011;49531;-34.520;150.798;2023-03-14T14:38:20;3.00;;;1.92;;
63394;SDS011;49531;-34.520;150.798;2023-03-14T14:40:49;4.00;;;1.98;;
63394;SDS011;49531;-34.520;150.798;2023-03-14T14:43:21;3.88;;;2.00;;
63394;SDS011;49531;-34.520;150.798;2023-03-14T14:45:51;6.13;;;1.70;;
63394;SDS011;49531;-34.520;150.798;2023-03-14T14:48:22;4.20;;;1.90;;
63394;SDS011;49531;-34.520;150.798;2023-03-14T14:53:36;3.53;;;1.75;;
63394;SDS011;49531;-34.520;150.798;2023-03-14T14:56:08;3.30;;;1.85;;
63394;SDS011;49531;-34.520;150.798;2023-03-14T14:58:45;2.95;;;1.88;;